Time;durP1;ratioP1;P1;durP2;ratioP2;P2;SDS_P1;SDS_P2;PMS_P1;PMS_P2;Temp;Humidity;BMP_temperature;BMP_pressure;BME280_temperature;BME280_humidity;BME280_pressure;Samples;Min_cycle;Max_cycle;Signal;HPM_P1;HPM_P2
2024/04/16 00:00:38;;;;;;;2.95;0.75;;;;;;;;;;5489600;26;20017;-77
2024/04/16 00:03:05;;;;;;;4.13;1.48;;;;;;;;;;5490870;26;19994;-74
2024/04/16 00:05:31;;;;;;;4.15;0.73;;;;;;;;;;5492756;26;20005;-77
2024/04/16 00:07:57;;;;;;;6.55;0.68;;;;;;;;;;5492373;26;20009;-76
2024/04/16 00:10:23;;;;;;;3.38;0.98;;;;;;;;;;5490474;26;20067;-77
2024/04/16 00:12:49;;;;;;;3.90;1.02;;;;;;;;;;5489614;26;19995;-77
2024/04/16 00:15:16;;;;;;;4.95;0.90;;;;;;;;;;5495689;26;19998;-76
2024/04/16 00:17:42;;;;;;;1.85;0.68;;;;;;;;;;5494854;26;20333;-76
2024/04/16 00:20:08;;;;;;;1.75;0.50;;;;;;;;;;5495528;26;19995;-75
2024/04/16 00:22:34;;;;;;;4.07;0.88;;;;;;;;;;5497060;26;19995;-76
2024/04/16 00:25:00;;;;;;;3.83;0.52;;;;;;;;;;5499483;26;19998;-74
2024/04/16 00:27:27;;;;;;;7.80;0.90;;;;;;;;;;5495833;26;19994;-77
2024/04/16 00:29:53;;;;;;;6.47;1.00;;;;;;;;;;5495661;26;19998;-76
2024/04/16 00:32:19;;;;;;;3.33;1.00;;;;;;;;;;5495663;26;20042;-76
2024/04/16 00:34:45;;;;;;;5.13;1.27;;;;;;;;;;5493780;26;19998;-75
2024/04/16 00:37:12;;;;;;;3.95;1.83;;;;;;;;;;5493137;26;19994;-75
2024/04/16 00:39:38;;;;;;;4.82;1.60;;;;;;;;;;5496973;26;19994;-76
2024/04/16 00:42:04;;;;;;;4.25;1.02;;;;;;;;;;5495968;26;19998;-76
2024/04/16 00:44:30;;;;;;;4.15;1.05;;;;;;;;;;5496804;26;20008;-77
2024/04/16 00:46:57;;;;;;;4.75;1.38;;;;;;;;;;5500102;26;19998;-76
2024/04/16 00:49:23;;;;;;;4.57;0.75;;;;;;;;;;5496768;26;19998;-76
2024/04/16 00:51:50;;;;;;;6.75;1.02;;;;;;;;;;5496208;26;19998;-76
2024/04/16 00:54:16;;;;;;;7.57;1.17;;;;;;;;;;5500136;26;19994;-75
2024/04/16 00:56:42;;;;;;;7.43;1.45;;;;;;;;;;5500247;26;20014;-76
2024/04/16 00:59:08;;;;;;;4.55;2.10;;;;;;;;;;5498842;26;20019;-77
2024/04/16 01:01:37;;;;;;;6.88;1.50;;;;;;;;;;5497698;26;19994;-77
2024/04/16 01:04:03;;;;;;;5.68;1.52;;;;;;;;;;5496166;26;20022;-76
2024/04/16 01:06:29;;;;;;;4.22;0.93;;;;;;;;;;5495585;26;20005;-76
2024/04/16 01:08:55;;;;;;;8.35;1.20;;;;;;;;;;5496885;26;20443;-77
2024/04/16 01:11:25;;;;;;;9.35;2.50;;;;;;;;;;5495986;26;20449;-76
2024/04/16 01:13:51;;;;;;;3.92;1.20;;;;;;;;;;5495651;26;20009;-76
2024/04/16 01:16:17;;;;;;;6.78;0.70;;;;;;;;;;5495956;26;20022;-76
2024/04/16 01:18:43;;;;;;;4.88;1.27;;;;;;;;;;5497661;26;19994;-76
2024/04/16 01:21:09;;;;;;;3.88;1.00;;;;;;;;;;5494152;26;20001;-77
2024/04/16 01:23:35;;;;;;;2.95;0.93;;;;;;;;;;5493576;26;20092;-76
2024/04/16 01:26:01;;;;;;;6.43;0.95;;;;;;;;;;5491939;26;20002;-76
2024/04/16 01:28:27;;;;;;;6.63;0.82;;;;;;;;;;5492977;26;19994;-76
2024/04/16 01:30:53;;;;;;;6.90;1.67;;;;;;;;;;5493454;26;20005;-76
2024/04/16 01:33:19;;;;;;;4.80;1.52;;;;;;;;;;5494998;26;20026;-75
2024/04/16 01:35:45;;;;;;;8.38;1.05;;;;;;;;;;5494628;26;20008;-76
2024/04/16 01:38:11;;;;;;;7.00;2.28;;;;;;;;;;5493845;26;20522;-76
2024/04/16 01:40:37;;;;;;;5.60;1.20;;;;;;;;;;5495986;26;20421;-76
2024/04/16 01:43:04;;;;;;;3.78;0.82;;;;;;;;;;5496926;26;20429;-75
2024/04/16 01:45:30;;;;;;;5.35;0.95;;;;;;;;;;5499494;26;19994;-74
2024/04/16 01:47:56;;;;;;;6.80;1.48;;;;;;;;;;5498269;26;19997;-75
2024/04/16 01:50:22;;;;;;;5.72;0.70;;;;;;;;;;5496191;26;19998;-76
2024/04/16 01:52:48;;;;;;;5.80;0.80;;;;;;;;;;5495043;26;20452;-76
2024/04/16 01:55:14;;;;;;;5.38;0.82;;;;;;;;;;5496557;26;20005;-75
2024/04/16 01:57:40;;;;;;;2.05;0.50;;;;;;;;;;5497700;26;20009;-74
2024/04/16 02:00:07;;;;;;;5.40;1.20;;;;;;;;;;5495809;26;20009;-76
2024/04/16 02:02:36;;;;;;;4.40;0.68;;;;;;;;;;5494784;26;19998;-77
2024/04/16 02:05:02;;;;;;;5.25;0.95;;;;;;;;;;5493254;26;20072;-77
2024/04/16 02:07:28;;;;;;;3.70;0.70;;;;;;;;;;5493954;26;20001;-76
2024/04/16 02:09:54;;;;;;;2.60;0.50;;;;;;;;;;5497286;26;19994;-75
2024/04/16 02:12:20;;;;;;;2.65;0.40;;;;;;;;;;5494939;26;20035;-76
2024/04/16 02:14:46;;;;;;;3.38;0.50;;;;;;;;;;5492787;26;20006;-76
2024/04/16 02:17:12;;;;;;;4.20;0.70;;;;;;;;;;5490516;26;19994;-77
2024/04/16 02:19:39;;;;;;;3.40;1.23;;;;;;;;;;5498011;26;20464;-76
2024/04/16 02:22:05;;;;;;;2.28;0.80;;;;;;;;;;5528707;26;20013;-75
2024/04/16 02:24:31;;;;;;;3.15;0.70;;;;;;;;;;5527906;26;20041;-76
2024/04/16 02:26:57;;;;;;;3.78;0.63;;;;;;;;;;5503590;25;19998;-76
2024/04/16 02:29:23;;;;;;;1.85;0.50;;;;;;;;;;5510130;26;20009;-75
2024/04/16 02:31:49;;;;;;;3.17;1.05;;;;;;;;;;5526883;26;19997;-76
2024/04/16 02:34:16;;;;;;;2.97;0.95;;;;;;;;;;5517213;25;20010;-75
2024/04/16 02:36:42;;;;;;;9.77;0.93;;;;;;;;;;5522006;25;20013;-77
2024/04/16 02:39:08;;;;;;;7.97;1.25;;;;;;;;;;5522844;26;20005;-76
2024/04/16 02:41:34;;;;;;;2.15;0.52;;;;;;;;;;5518186;25;20003;-76
2024/04/16 02:44:00;;;;;;;2.30;0.60;;;;;;;;;;5506723;26;20069;-75
2024/04/16 02:46:27;;;;;;;2.47;0.60;;;;;;;;;;5493398;26;20006;-76
2024/04/16 02:48:54;;;;;;;2.08;0.47;;;;;;;;;;5532929;26;19997;-75
2024/04/16 02:51:21;;;;;;;2.85;0.73;;;;;;;;;;5529781;25;20037;-76
2024/04/16 02:53:47;;;;;;;4.68;0.98;;;;;;;;;;5529421;26;19989;-75
2024/04/16 02:56:13;;;;;;;6.18;0.88;;;;;;;;;;5517336;25;20017;-75
2024/04/16 02:58:39;;;;;;;4.25;0.77;;;;;;;;;;5530208;25;20012;-75
2024/04/16 03:01:06;;;;;;;4.43;0.77;;;;;;;;;;5528160;25;20446;-77
2024/04/16 03:03:36;;;;;;;3.15;0.52;;;;;;;;;;5517750;25;20001;-78
2024/04/16 03:06:02;;;;;;;3.10;0.60;;;;;;;;;;5517380;26;20073;-76
2024/04/16 03:08:28;;;;;;;2.20;0.60;;;;;;;;;;5527972;25;19994;-76
2024/04/16 03:10:58;;;;;;;7.47;1.65;;;;;;;;;;5507809;25;20005;-77
2024/04/16 03:13:24;;;;;;;4.13;1.17;;;;;;;;;;5496857;26;20013;-76
2024/04/16 03:15:50;;;;;;;0.88;0.43;;;;;;;;;;5495842;26;20002;-75
2024/04/16 03:18:16;;;;;;;2.72;0.40;;;;;;;;;;5494631;26;20006;-77
2024/04/16 03:20:42;;;;;;;7.53;0.38;;;;;;;;;;5517727;25;19993;-76
2024/04/16 03:23:08;;;;;;;2.92;0.63;;;;;;;;;;5518127;26;20010;-77
2024/04/16 03:25:44;;;;;;;4.80;0.55;;;;;;;;;;5491027;26;20006;-75
2024/04/16 03:28:10;;;;;;;1.83;0.70;;;;;;;;;;5493081;26;20095;-76
2024/04/16 03:30:36;;;;;;;4.95;0.43;;;;;;;;;;5500154;26;19998;-77
2024/04/16 03:33:02;;;;;;;2.05;0.80;;;;;;;;;;5526179;26;19997;-75
2024/04/16 03:35:28;;;;;;;1.60;0.50;;;;;;;;;;5493105;25;20026;-76
2024/04/16 03:37:54;;;;;;;2.05;0.60;;;;;;;;;;5490606;26;20425;-77
2024/04/16 03:40:21;;;;;;;4.47;0.93;;;;;;;;;;5496492;26;19997;-77
2024/04/16 03:42:47;;;;;;;4.07;0.50;;;;;;;;;;5527032;25;19998;-76
2024/04/16 03:45:13;;;;;;;4.75;0.80;;;;;;;;;;5507791;25;19994;-77
2024/04/16 03:47:39;;;;;;;5.38;0.60;;;;;;;;;;5490506;26;20066;-77
2024/04/16 03:50:05;;;;;;;3.38;0.68;;;;;;;;;;5525624;25;19994;-76
2024/04/16 03:52:31;;;;;;;4.10;0.77;;;;;;;;;;5523749;26;20440;-77
2024/04/16 03:54:57;;;;;;;4.32;0.55;;;;;;;;;;5526007;25;20004;-77
2024/04/16 03:57:23;;;;;;;3.15;0.65;;;;;;;;;;5494867;26;19998;-76
2024/04/16 04:02:28;;;;;;;5.60;0.63;;;;;;;;;;5489458;26;20006;-76
2024/04/16 04:04:54;;;;;;;5.50;0.82;;;;;;;;;;5522910;25;20452;-77
2024/04/16 04:07:20;;;;;;;3.22;0.63;;;;;;;;;;5511299;26;20002;-77
2024/04/16 04:09:48;;;;;;;6.78;0.80;;;;;;;;;;5523405;25;20365;-78
2024/04/16 04:12:14;;;;;;;3.95;0.75;;;;;;;;;;5491014;26;20002;-75
2024/04/16 04:14:40;;;;;;;4.78;0.80;;;;;;;;;;5501950;26;20009;-77
2024/04/16 04:17:07;;;;;;;2.70;0.50;;;;;;;;;;5522908;25;20001;-78
2024/04/16 04:19:33;;;;;;;5.38;0.52;;;;;;;;;;5489721;26;20009;-78
2024/04/16 04:21:59;;;;;;;3.50;0.55;;;;;;;;;;5490248;26;20022;-78
2024/04/16 04:24:25;;;;;;;5.25;0.47;;;;;;;;;;5487876;26;20006;-75
2024/04/16 04:26:51;;;;;;;3.53;0.90;;;;;;;;;;5490609;26;20009;-76
2024/04/16 04:29:17;;;;;;;2.80;0.70;;;;;;;;;;5490884;26;20006;-76
2024/04/16 04:31:43;;;;;;;6.43;0.85;;;;;;;;;;5492566;26;19998;-76
2024/04/16 04:34:09;;;;;;;2.65;0.85;;;;;;;;;;5490106;26;19995;-75
2024/04/16 04:36:35;;;;;;;2.50;0.63;;;;;;;;;;5489046;26;20006;-77
2024/04/16 04:39:02;;;;;;;4.65;0.77;;;;;;;;;;5488742;26;19998;-76
2024/04/16 04:41:28;;;;;;;1.42;0.60;;;;;;;;;;5489791;26;19993;-76
2024/04/16 04:43:54;;;;;;;6.53;1.23;;;;;;;;;;5489639;26;20045;-77
2024/04/16 04:46:20;;;;;;;9.00;1.00;;;;;;;;;;5488903;26;20005;-76
2024/04/16 04:48:46;;;;;;;4.95;0.50;;;;;;;;;;5488733;26;19990;-75
2024/04/16 04:51:14;;;;;;;6.78;0.70;;;;;;;;;;5490449;26;20022;-76
2024/04/16 04:53:40;;;;;;;3.65;1.88;;;;;;;;;;5488897;26;20008;-75
2024/04/16 04:56:09;;;;;;;5.38;0.90;;;;;;;;;;5488501;26;20000;-76
2024/04/16 04:58:35;;;;;;;3.00;1.02;;;;;;;;;;5489209;26;20333;-75
2024/04/16 05:01:02;;;;;;;4.47;1.27;;;;;;;;;;5491158;26;19994;-75
2024/04/16 05:03:28;;;;;;;5.50;1.27;;;;;;;;;;5490755;26;19994;-76
2024/04/16 05:05:54;;;;;;;6.43;1.58;;;;;;;;;;5490736;26;20009;-76
2024/04/16 05:08:20;;;;;;;5.28;1.00;;;;;;;;;;5493092;26;20009;-77
2024/04/16 05:10:50;;;;;;;3.22;0.60;;;;;;;;;;5491233;26;20445;-78
2024/04/16 05:13:16;;;;;;;3.13;0.82;;;;;;;;;;5492127;26;19998;-75
2024/04/16 05:15:43;;;;;;;5.13;1.52;;;;;;;;;;5493348;26;20664;-75
2024/04/16 05:18:09;;;;;;;4.95;1.67;;;;;;;;;;5490436;26;20403;-74
2024/04/16 05:20:35;;;;;;;3.30;1.27;;;;;;;;;;5492648;26;19994;-76
2024/04/16 05:23:01;;;;;;;8.43;1.10;;;;;;;;;;5491154;26;20043;-75
2024/04/16 05:25:28;;;;;;;4.80;1.02;;;;;;;;;;5490609;26;20616;-76
2024/04/16 05:27:54;;;;;;;7.88;1.20;;;;;;;;;;5492608;26;19990;-76
2024/04/16 05:30:20;;;;;;;5.07;1.35;;;;;;;;;;5490588;26;20005;-76
2024/04/16 05:32:47;;;;;;;8.68;1.20;;;;;;;;;;5491654;26;19998;-76
2024/04/16 05:35:13;;;;;;;6.20;1.48;;;;;;;;;;5492581;26;20008;-75
2024/04/16 05:37:39;;;;;;;6.82;1.83;;;;;;;;;;5492401;26;19998;-75
2024/04/16 05:40:06;;;;;;;6.50;1.35;;;;;;;;;;5507861;25;20009;-75
2024/04/16 05:42:32;;;;;;;9.88;1.65;;;;;;;;;;5521074;26;19997;-75
2024/04/16 05:44:58;;;;;;;4.00;1.10;;;;;;;;;;5533592;26;19993;-75
2024/04/16 05:47:25;;;;;;;9.32;1.33;;;;;;;;;;5528803;25;20408;-75
2024/04/16 05:49:51;;;;;;;6.75;1.85;;;;;;;;;;5529376;26;20488;-78
2024/04/16 05:52:18;;;;;;;13.75;2.00;;;;;;;;;;5530429;25;19994;-76
2024/04/16 05:54:44;;;;;;;7.72;1.70;;;;;;;;;;5528187;26;20013;-76
2024/04/16 05:57:10;;;;;;;9.13;2.05;;;;;;;;;;5527437;25;19998;-75
2024/04/16 05:59:36;;;;;;;7.47;2.97;;;;;;;;;;5528492;25;20339;-74
2024/04/16 06:02:02;;;;;;;4.88;1.23;;;;;;;;;;5525580;25;20065;-74
2024/04/16 06:04:28;;;;;;;10.70;1.50;;;;;;;;;;5530017;25;20004;-73
2024/04/16 06:06:54;;;;;;;6.25;1.42;;;;;;;;;;5532279;25;20066;-74
2024/04/16 06:09:20;;;;;;;12.68;2.38;;;;;;;;;;5535359;26;20451;-78
2024/04/16 06:11:47;;;;;;;5.88;1.05;;;;;;;;;;5533166;25;20016;-79
2024/04/16 06:14:13;;;;;;;14.63;2.58;;;;;;;;;;5530771;25;19993;-77
2024/04/16 06:16:39;;;;;;;7.90;1.90;;;;;;;;;;5532939;25;20001;-82
2024/04/16 06:19:06;;;;;;;10.65;2.20;;;;;;;;;;5533515;26;19994;-77
2024/04/16 06:21:32;;;;;;;7.57;1.60;;;;;;;;;;5530182;25;20004;-75
2024/04/16 06:23:58;;;;;;;6.72;1.20;;;;;;;;;;5529242;25;19997;-76
2024/04/16 06:26:24;;;;;;;12.43;3.00;;;;;;;;;;5533139;25;20017;-74
2024/04/16 06:28:50;;;;;;;5.20;1.52;;;;;;;;;;5532008;26;20005;-74
2024/04/16 06:31:16;;;;;;;11.25;1.58;;;;;;;;;;5526969;25;19993;-75
2024/04/16 06:33:42;;;;;;;6.95;1.52;;;;;;;;;;5528617;25;20004;-75
2024/04/16 06:36:08;;;;;;;10.27;2.00;;;;;;;;;;5528985;26;19993;-75
2024/04/16 06:38:34;;;;;;;9.30;1.63;;;;;;;;;;5526827;26;19997;-73
2024/04/16 06:41:00;;;;;;;6.57;1.20;;;;;;;;;;5528376;25;19997;-73
2024/04/16 06:43:27;;;;;;;6.30;1.60;;;;;;;;;;5528992;26;20005;-74
2024/04/16 06:45:53;;;;;;;10.32;2.90;;;;;;;;;;5528336;25;19993;-75
2024/04/16 06:48:19;;;;;;;7.50;1.90;;;;;;;;;;5528585;26;20001;-74
2024/04/16 06:50:49;;;;;;;14.52;3.03;;;;;;;;;;5529889;26;20009;-75
2024/04/16 06:53:15;;;;;;;8.73;1.80;;;;;;;;;;5529609;26;20044;-74
2024/04/16 06:55:41;;;;;;;4.57;1.58;;;;;;;;;;5537095;26;20003;-75
2024/04/16 06:58:08;;;;;;;6.88;1.75;;;;;;;;;;5532874;25;19990;-74
2024/04/16 07:00:34;;;;;;;12.77;2.08;;;;;;;;;;5527851;25;20009;-75
2024/04/16 07:03:00;;;;;;;11.15;1.92;;;;;;;;;;5526442;26;19993;-75
2024/04/16 07:05:26;;;;;;;5.80;1.30;;;;;;;;;;5527426;25;20339;-75
2024/04/16 07:07:53;;;;;;;5.78;1.77;;;;;;;;;;5524353;25;20017;-75
2024/04/16 07:10:19;;;;;;;6.85;1.35;;;;;;;;;;5529790;25;20002;-75
2024/04/16 07:12:45;;;;;;;8.02;2.15;;;;;;;;;;5528518;25;20008;-75
2024/04/16 07:15:11;;;;;;;5.63;1.30;;;;;;;;;;5529199;26;20077;-74
2024/04/16 07:17:37;;;;;;;7.07;1.48;;;;;;;;;;5530933;25;20005;-75
2024/04/16 07:20:04;;;;;;;9.80;2.08;;;;;;;;;;5530147;26;20455;-75
2024/04/16 07:22:32;;;;;;;7.35;1.30;;;;;;;;;;5526924;25;20009;-76
2024/04/16 07:24:58;;;;;;;4.53;1.70;;;;;;;;;;5527032;26;20011;-75
2024/04/16 07:27:24;;;;;;;3.60;1.33;;;;;;;;;;5528739;26;20343;-74
2024/04/16 07:29:50;;;;;;;6.85;1.60;;;;;;;;;;5531165;25;19997;-75
2024/04/16 07:32:16;;;;;;;5.63;1.50;;;;;;;;;;5535901;26;20454;-75
2024/04/16 07:34:42;;;;;;;5.60;1.70;;;;;;;;;;5534875;26;20001;-74
2024/04/16 07:37:08;;;;;;;9.10;1.73;;;;;;;;;;5534114;25;20008;-75
2024/04/16 07:39:34;;;;;;;8.40;1.98;;;;;;;;;;5536038;26;19993;-74
2024/04/16 07:42:00;;;;;;;5.05;1.95;;;;;;;;;;5539150;25;19994;-75
2024/04/16 07:44:26;;;;;;;3.47;1.50;;;;;;;;;;5528796;26;19994;-74
2024/04/16 07:46:55;;;;;;;7.22;2.55;;;;;;;;;;5515461;25;20013;-74
2024/04/16 07:49:21;;;;;;;4.60;1.50;;;;;;;;;;5514231;25;19998;-74
2024/04/16 07:51:47;;;;;;;6.53;1.35;;;;;;;;;;5513665;25;20071;-74
2024/04/16 07:54:13;;;;;;;8.63;2.78;;;;;;;;;;5509678;25;20010;-75
2024/04/16 07:56:39;;;;;;;4.07;1.33;;;;;;;;;;5508686;26;20010;-75
2024/04/16 07:59:05;;;;;;;4.07;1.25;;;;;;;;;;5502203;26;20004;-74
2024/04/16 08:01:31;;;;;;;5.63;1.55;;;;;;;;;;5510562;26;20001;-75
2024/04/16 08:03:57;;;;;;;5.90;2.80;;;;;;;;;;5506285;25;20159;-75
2024/04/16 08:06:23;;;;;;;6.38;1.20;;;;;;;;;;5509813;26;20005;-75
2024/04/16 08:08:51;;;;;;;5.25;1.00;;;;;;;;;;5510571;26;20005;-75
2024/04/16 08:11:17;;;;;;;5.78;1.20;;;;;;;;;;5509855;25;20453;-75
2024/04/16 08:13:43;;;;;;;4.72;2.70;;;;;;;;;;5508985;26;20363;-75
2024/04/16 08:16:09;;;;;;;3.20;0.80;;;;;;;;;;5511765;25;20002;-75
2024/04/16 08:18:35;;;;;;;1.45;0.52;;;;;;;;;;5507610;25;20016;-73
2024/04/16 08:21:01;;;;;;;2.03;0.80;;;;;;;;;;5513734;25;20340;-76
2024/04/16 08:23:27;;;;;;;3.40;1.45;;;;;;;;;;5535047;25;20020;-74
2024/04/16 08:26:07;;;;;;;2.75;0.75;;;;;;;;;;5545296;25;19998;-76
2024/04/16 08:28:33;;;;;;;5.68;1.05;;;;;;;;;;5541866;25;19997;-76
2024/04/16 08:30:59;;;;;;;3.47;1.33;;;;;;;;;;5545678;25;20001;-76
2024/04/16 08:33:25;;;;;;;4.32;1.63;;;;;;;;;;5538985;25;19997;-76
2024/04/16 08:35:51;;;;;;;4.95;1.88;;;;;;;;;;5559065;25;20004;-75
2024/04/16 08:38:18;;;;;;;2.85;1.02;;;;;;;;;;5547793;25;20021;-76
2024/04/16 08:40:47;;;;;;;5.13;1.10;;;;;;;;;;5543392;25;20004;-75
2024/04/16 08:43:13;;;;;;;5.88;1.00;;;;;;;;;;5549957;25;19997;-75
2024/04/16 08:45:42;;;;;;;3.50;1.27;;;;;;;;;;5547628;25;19997;-75
2024/04/16 08:48:08;;;;;;;5.53;2.17;;;;;;;;;;5545034;25;20002;-76
2024/04/16 08:50:36;;;;;;;1.90;0.70;;;;;;;;;;5550404;25;20001;-76
2024/04/16 08:53:03;;;;;;;5.05;1.27;;;;;;;;;;5546015;25;20355;-75
2024/04/16 08:55:30;;;;;;;4.28;0.75;;;;;;;;;;5563836;25;20395;-76
2024/04/16 08:57:56;;;;;;;4.57;1.00;;;;;;;;;;5565269;25;19993;-75
2024/04/16 09:00:22;;;;;;;3.70;1.48;;;;;;;;;;5565235;25;20005;-74
2024/04/16 09:02:52;;;;;;;4.03;0.90;;;;;;;;;;5567104;25;19989;-75
2024/04/16 09:05:18;;;;;;;4.03;1.52;;;;;;;;;;5568089;25;20033;-75
2024/04/16 09:07:46;;;;;;;3.50;1.70;;;;;;;;;;5566500;25;20006;-73
2024/04/16 09:10:12;;;;;;;5.75;1.77;;;;;;;;;;5567476;25;19996;-76
2024/04/16 09:12:40;;;;;;;4.05;1.05;;;;;;;;;;5540812;25;20009;-75
2024/04/16 09:15:06;;;;;;;3.85;2.20;;;;;;;;;;5523903;26;20002;-75
2024/04/16 09:17:32;;;;;;;6.95;2.00;;;;;;;;;;5529051;26;20012;-76
2024/04/16 09:20:02;;;;;;;4.82;1.05;;;;;;;;;;5532090;25;19996;-74
2024/04/16 09:22:30;;;;;;;2.97;1.20;;;;;;;;;;5533256;26;19994;-75
2024/04/16 09:25:04;;;;;;;5.78;1.42;;;;;;;;;;5535443;25;19993;-76
2024/04/16 09:27:31;;;;;;;5.00;1.40;;;;;;;;;;5534201;25;20008;-75
2024/04/16 09:30:12;;;;;;;2.63;0.98;;;;;;;;;;5529101;26;19993;-75
2024/04/16 09:32:39;;;;;;;7.07;1.75;;;;;;;;;;5527791;26;20039;-75
2024/04/16 09:35:05;;;;;;;3.88;1.33;;;;;;;;;;5527733;25;20041;-76
2024/04/16 09:37:32;;;;;;;5.20;1.75;;;;;;;;;;5527525;26;19997;-76
2024/04/16 09:40:01;;;;;;;1.40;0.70;;;;;;;;;;5530252;26;20444;-75
2024/04/16 09:42:29;;;;;;;1.73;1.20;;;;;;;;;;5527792;25;20012;-76
2024/04/16 09:44:57;;;;;;;3.88;1.45;;;;;;;;;;5529158;25;20436;-77
2024/04/16 09:47:23;;;;;;;7.82;1.42;;;;;;;;;;5527045;25;20001;-76
2024/04/16 09:49:50;;;;;;;2.13;1.35;;;;;;;;;;5527679;25;19993;-77
2024/04/16 09:52:18;;;;;;;1.55;0.85;;;;;;;;;;5527362;25;20003;-75
2024/04/16 09:54:44;;;;;;;1.55;1.15;;;;;;;;;;5527254;25;19994;-76
2024/04/16 09:57:11;;;;;;;3.95;1.05;;;;;;;;;;5529114;26;20008;-76
2024/04/16 09:59:44;;;;;;;2.28;1.42;;;;;;;;;;5529320;25;20004;-75
2024/04/16 10:02:10;;;;;;;2.88;1.10;;;;;;;;;;5527241;25;20026;-75
2024/04/16 10:04:36;;;;;;;2.95;1.13;;;;;;;;;;5529511;26;20250;-75
2024/04/16 10:07:03;;;;;;;4.55;1.40;;;;;;;;;;5528926;26;20009;-75
2024/04/16 10:09:33;;;;;;;4.88;1.67;;;;;;;;;;5529185;25;19993;-75
2024/04/16 10:11:59;;;;;;;4.55;1.55;;;;;;;;;;5528862;25;20000;-74
2024/04/16 10:14:26;;;;;;;3.38;1.45;;;;;;;;;;5530770;26;20013;-76
2024/04/16 10:16:53;;;;;;;2.05;1.27;;;;;;;;;;5530005;26;20025;-76
2024/04/16 10:19:20;;;;;;;5.28;1.40;;;;;;;;;;5531084;26;20021;-75
2024/04/16 10:21:46;;;;;;;6.75;1.83;;;;;;;;;;5526965;26;20085;-76
2024/04/16 10:24:16;;;;;;;3.58;1.83;;;;;;;;;;5530274;26;20004;-76
2024/04/16 10:26:42;;;;;;;3.67;1.85;;;;;;;;;;5527814;25;20007;-75
2024/04/16 10:29:13;;;;;;;4.30;1.95;;;;;;;;;;5525833;26;19998;-76
2024/04/16 10:31:39;;;;;;;4.60;1.52;;;;;;;;;;5526286;25;20449;-75
2024/04/16 10:34:05;;;;;;;2.38;1.88;;;;;;;;;;5526700;26;19997;-74
2024/04/16 10:36:33;;;;;;;2.22;1.48;;;;;;;;;;5526235;26;19997;-76
2024/04/16 10:38:59;;;;;;;3.95;2.55;;;;;;;;;;5527329;25;19993;-75
2024/04/16 10:41:28;;;;;;;2.72;1.13;;;;;;;;;;5526467;26;20009;-76
2024/04/16 10:43:57;;;;;;;2.10;1.17;;;;;;;;;;5528981;26;20008;-75
2024/04/16 10:46:24;;;;;;;3.83;1.90;;;;;;;;;;5529378;25;20005;-76
2024/04/16 10:48:52;;;;;;;1.60;1.20;;;;;;;;;;5531116;25;19993;-76
2024/04/16 10:51:18;;;;;;;5.20;1.52;;;;;;;;;;5531367;25;19993;-75
2024/04/16 10:53:44;;;;;;;2.95;1.75;;;;;;;;;;5529393;25;19993;-75
2024/04/16 10:56:11;;;;;;;2.97;1.13;;;;;;;;;;5529947;25;20042;-76
2024/04/16 10:58:37;;;;;;;1.83;0.85;;;;;;;;;;5526340;26;20001;-75
2024/04/16 11:01:04;;;;;;;1.67;0.90;;;;;;;;;;5527704;25;20001;-76
2024/04/16 11:03:33;;;;;;;4.65;1.15;;;;;;;;;;5526434;26;19997;-75
2024/04/16 11:05:59;;;;;;;3.35;0.73;;;;;;;;;;5528931;25;20005;-76
2024/04/16 11:08:26;;;;;;;3.55;0.55;;;;;;;;;;5526757;25;19998;-75
2024/04/16 11:10:52;;;;;;;3.22;0.93;;;;;;;;;;5525758;25;19997;-75
2024/04/16 11:13:19;;;;;;;2.10;0.77;;;;;;;;;;5527610;25;20007;-67
2024/04/16 11:15:45;;;;;;;6.78;1.00;;;;;;;;;;5527495;25;20068;-66
2024/04/16 11:18:12;;;;;;;2.97;0.30;;;;;;;;;;5526960;25;19994;-66
2024/04/16 11:20:39;;;;;;;0.75;0.40;;;;;;;;;;5527641;25;20007;-73
2024/04/16 11:23:05;;;;;;;2.88;0.55;;;;;;;;;;5519638;25;20534;-75
2024/04/16 11:25:31;;;;;;;1.05;0.60;;;;;;;;;;5520741;25;20005;-76
2024/04/16 11:27:58;;;;;;;1.83;0.60;;;;;;;;;;5532242;25;20005;-75
2024/04/16 11:30:24;;;;;;;2.13;0.88;;;;;;;;;;5514290;25;19999;-76
2024/04/16 11:32:50;;;;;;;1.42;0.65;;;;;;;;;;5490178;26;20464;-75
2024/04/16 11:35:16;;;;;;;2.80;0.40;;;;;;;;;;5503452;26;20002;-76
2024/04/16 11:37:46;;;;;;;3.72;0.57;;;;;;;;;;5491724;26;19998;-76
2024/04/16 11:40:12;;;;;;;4.40;0.77;;;;;;;;;;5513976;25;20002;-75
2024/04/16 11:42:40;;;;;;;4.00;0.47;;;;;;;;;;5490604;26;20073;-75
2024/04/16 11:45:06;;;;;;;1.25;0.50;;;;;;;;;;5507784;26;20030;-73
2024/04/16 11:47:32;;;;;;;2.63;0.57;;;;;;;;;;5529346;25;20012;-76
2024/04/16 11:50:00;;;;;;;1.50;0.40;;;;;;;;;;5495267;26;19994;-76
2024/04/16 11:52:26;;;;;;;1.20;0.30;;;;;;;;;;5520080;25;20398;-77
2024/04/16 11:54:52;;;;;;;0.85;0.30;;;;;;;;;;5526545;26;20422;-77
2024/04/16 11:57:18;;;;;;;4.25;1.50;;;;;;;;;;5525211;25;20002;-77
2024/04/16 11:59:44;;;;;;;5.28;0.50;;;;;;;;;;5527707;25;19998;-77
2024/04/16 12:02:13;;;;;;;0.70;0.30;;;;;;;;;;5510656;25;20014;-76
2024/04/16 12:04:39;;;;;;;2.60;0.25;;;;;;;;;;5527835;25;20681;-75
2024/04/16 12:07:05;;;;;;;1.63;0.63;;;;;;;;;;5532234;25;19994;-77
2024/04/16 12:09:31;;;;;;;1.55;0.60;;;;;;;;;;5501131;26;20010;-76
2024/04/16 12:11:57;;;;;;;1.00;0.30;;;;;;;;;;5518239;26;20035;-74
2024/04/16 12:14:24;;;;;;;1.10;0.50;;;;;;;;;;5504417;26;19994;-75
2024/04/16 12:16:50;;;;;;;1.13;0.45;;;;;;;;;;5517099;26;20031;-76
2024/04/16 12:19:16;;;;;;;1.73;0.28;;;;;;;;;;5506768;26;19998;-76
2024/04/16 12:21:42;;;;;;;3.22;0.60;;;;;;;;;;5539620;25;19994;-75
2024/04/16 12:24:08;;;;;;;1.52;0.70;;;;;;;;;;5515088;25;20005;-77
2024/04/16 12:26:34;;;;;;;2.08;0.38;;;;;;;;;;5529207;26;20120;-75
2024/04/16 12:29:00;;;;;;;2.30;0.50;;;;;;;;;;5531867;25;19994;-75
2024/04/16 12:31:26;;;;;;;2.25;0.63;;;;;;;;;;5503161;26;19994;-76
2024/04/16 12:33:52;;;;;;;4.07;0.70;;;;;;;;;;5531136;25;19989;-77
2024/04/16 12:36:19;;;;;;;2.08;0.50;;;;;;;;;;5519900;26;20448;-77
2024/04/16 12:38:45;;;;;;;0.47;0.17;;;;;;;;;;5505138;26;20007;-77
2024/04/16 12:41:11;;;;;;;0.63;0.30;;;;;;;;;;5515582;26;20351;-77
2024/04/16 12:43:37;;;;;;;3.85;0.20;;;;;;;;;;5506206;26;19994;-77
2024/04/16 12:46:05;;;;;;;1.10;0.40;;;;;;;;;;5524484;25;20001;-78
2024/04/16 12:48:31;;;;;;;4.55;0.70;;;;;;;;;;5530069;25;19994;-79
2024/04/16 12:50:57;;;;;;;1.40;0.30;;;;;;;;;;5517499;26;19998;-77
2024/04/16 12:53:23;;;;;;;6.05;1.13;;;;;;;;;;5524300;25;19994;-76
2024/04/16 12:55:52;;;;;;;1.70;0.60;;;;;;;;;;5533683;25;19993;-77
2024/04/16 12:58:18;;;;;;;1.05;0.10;;;;;;;;;;5536026;26;20043;-77
2024/04/16 13:00:45;;;;;;;5.32;0.95;;;;;;;;;;5524842;25;20457;-77
2024/04/16 13:03:14;;;;;;;0.95;0.30;;;;;;;;;;5530620;26;20012;-77
2024/04/16 13:05:41;;;;;;;2.10;0.40;;;;;;;;;;5529163;25;19997;-76
2024/04/16 13:08:08;;;;;;;2.38;0.20;;;;;;;;;;5511129;26;20069;-78
2024/04/16 13:10:37;;;;;;;1.67;0.20;;;;;;;;;;5544389;25;20009;-76
2024/04/16 13:13:03;;;;;;;2.38;0.32;;;;;;;;;;5506583;25;20009;-76
2024/04/16 13:15:29;;;;;;;1.52;0.20;;;;;;;;;;5517046;25;20001;-77
2024/04/16 13:17:56;;;;;;;1.75;0.35;;;;;;;;;;5536860;25;19993;-76
2024/04/16 13:20:24;;;;;;;7.13;0.50;;;;;;;;;;5497273;26;20070;-77
2024/04/16 13:22:50;;;;;;;2.70;0.20;;;;;;;;;;5496659;26;19998;-76
2024/04/16 13:25:16;;;;;;;2.67;0.40;;;;;;;;;;5502937;26;20013;-76
2024/04/16 13:27:42;;;;;;;0.47;0.15;;;;;;;;;;5504541;26;20062;-76
2024/04/16 13:30:08;;;;;;;2.95;0.20;;;;;;;;;;5519797;26;19998;-75
2024/04/16 13:32:34;;;;;;;0.43;0.30;;;;;;;;;;5520202;25;20576;-78
2024/04/16 13:35:00;;;;;;;3.83;0.35;;;;;;;;;;5499613;26;19994;-77
2024/04/16 13:37:26;;;;;;;4.25;0.30;;;;;;;;;;5497785;26;20006;-77
2024/04/16 13:39:52;;;;;;;1.30;0.13;;;;;;;;;;5513270;26;20074;-76
2024/04/16 13:42:18;;;;;;;2.40;0.20;;;;;;;;;;5498269;25;20025;-79
2024/04/16 13:44:44;;;;;;;1.05;0.25;;;;;;;;;;5514583;26;19998;-79
2024/04/16 13:47:10;;;;;;;0.70;0.40;;;;;;;;;;5518638;25;20008;-77
2024/04/16 13:49:36;;;;;;;0.20;0.10;;;;;;;;;;5534045;25;19997;-77
2024/04/16 13:52:05;;;;;;;4.13;0.25;;;;;;;;;;5515220;25;20008;-77
2024/04/16 13:54:31;;;;;;;1.08;0.30;;;;;;;;;;5511119;26;20002;-76
2024/04/16 13:56:57;;;;;;;0.55;0.20;;;;;;;;;;5497782;26;19998;-77
2024/04/16 13:59:24;;;;;;;1.98;0.20;;;;;;;;;;5531693;25;19997;-77
2024/04/16 14:01:50;;;;;;;1.85;0.00;;;;;;;;;;5534656;25;20010;-77
2024/04/16 14:04:16;;;;;;;0.30;0.10;;;;;;;;;;5497418;26;20009;-77
2024/04/16 14:06:42;;;;;;;2.38;0.10;;;;;;;;;;5496917;26;20013;-77
2024/04/16 14:09:08;;;;;;;1.77;0.40;;;;;;;;;;5497009;26;20002;-77
2024/04/16 14:11:34;;;;;;;1.75;0.25;;;;;;;;;;5495759;26;20014;-77
2024/04/16 14:14:00;;;;;;;0.20;0.10;;;;;;;;;;5512268;26;20029;-76
2024/04/16 14:16:26;;;;;;;0.10;0.00;;;;;;;;;;5524607;25;20460;-78
2024/04/16 14:18:53;;;;;;;0.85;0.47;;;;;;;;;;5521621;26;20077;-76
2024/04/16 14:21:19;;;;;;;5.05;0.30;;;;;;;;;;5509452;25;20005;-76
2024/04/16 14:23:46;;;;;;;0.82;0.10;;;;;;;;;;5496438;26;20013;-77
2024/04/16 14:26:18;;;;;;;0.45;0.10;;;;;;;;;;5493966;26;20028;-76
2024/04/16 14:28:46;;;;;;;6.80;0.65;;;;;;;;;;5501024;26;19994;-77
2024/04/16 14:31:14;;;;;;;0.25;0.00;;;;;;;;;;5503219;26;20456;-76
2024/04/16 14:33:40;;;;;;;0.10;0.10;;;;;;;;;;5495938;26;20013;-77
2024/04/16 14:36:06;;;;;;;1.15;0.10;;;;;;;;;;5524743;26;20001;-77
2024/04/16 14:38:32;;;;;;;1.55;0.20;;;;;;;;;;5525973;25;20005;-76
2024/04/16 14:40:58;;;;;;;0.82;0.10;;;;;;;;;;5516498;25;20006;-77